Historique des mesures à Cassis (13260), France
Quotidien Résumé Novembre 15, 2017 Unités:  Métrique    US   Métrique/US
« Précédent (Jour)
Suivant (Jour) »
Quotidien Hebdomadaire Mensuel Annuel Période au choix
  Maximum: Minimum: Moyenne:
Température: TemperatureC °C 9.1 °C 10.6 °C
Point de rosée: DewpointC °C -3.1 °C 0.6 °C
Humidité: Humidity % 42 % 47 %
Vitesse du vent: 0 km/h 0 km/h 1.3 km/h
Rafales: 0 km/h - -
Vent:- - South
Pression: PressurehPa hPa 1011.7 hPa -
Précipitations: 0.0 mm    
Historical Graphs
 
 
Mesures pour : Novembre 15, 2017
Heure Temperature Point de rosée Pression Vent Vitesse du vent Rafales Humidité Pluie (par heure) Conditions
TemperatureC °C DewpointC °C PressurehPa hPa Calm     Humidity % HourlyPrecipMM mm SoftwareType W/m2
00:10 9.9 °C -1.6 °C 1013.4 hPa Calm   3.4 km/h 45 % 0.0 mm open2300-1.11 W/m2
01:11 9.9 °C -1.9 °C 1012.8 hPa Calm   8 km/h 44 % 0.0 mm open2300-1.11 W/m2
02:10 9.9 °C -1.9 °C 1012.8 hPa NE 10.3 km/h 13.2 km/h 44 % 0.0 mm open2300-1.11 W/m2
03:11 9.8 °C -1.9 °C 1012.4 hPa NNW 4.2 km/h 4.2 km/h 44 % 0.0 mm open2300-1.11 W/m2
04:10 9.4 °C -2.3 °C 1012.4 hPa Calm     44 % 0.0 mm open2300-1.11 W/m2
05:11 9.8 °C -2.3 °C 1011.7 hPa SE 8.9 km/h 8.9 km/h 43 % 0.0 mm open2300-1.11 W/m2
06:10 9.1 °C -2.9 °C 1012.1 hPa Calm   9.8 km/h 43 % 0.0 mm open2300-1.11 W/m2
07:11 9.4 °C -2.9 °C 1012.4 hPa Calm     42 % 0.0 mm open2300-1.11 W/m2
08:10 9.2 °C -3.1 °C 1013.1 hPa Calm     42 % 0.0 mm open2300-1.11 W/m2
09:11 10.8 °C -1.3 °C 1013.4 hPa Calm     43 % 0.0 mm open2300-1.11 W/m2
10:10 11.4 °C -0.2 °C 1013.8 hPa Calm     45 % 0.0 mm open2300-1.11 W/m2
11:11 12.9 °C 2.4 °C 1014.1 hPa Calm   9.3 km/h 49 % 0.0 mm open2300-1.11 W/m2
12:10 13.3 °C 3.3 °C 1014.1 hPa Calm     51 % 0.0 mm open2300-1.11 W/m2
13:11 13.6 °C 5.5 °C 1013.4 hPa SSE 8 km/h 8 km/h 58 % 0.0 mm open2300-1.11 W/m2
14:10 13.9 °C 6.7 °C 1013.4 hPa Calm     62 % 0.0 mm open2300-1.11 W/m2
15:11 14.2 °C 5.8 °C 1013.8 hPa Calm     57 % 0.0 mm open2300-1.11 W/m2
16:10 14.0 °C 5.4 °C 1013.8 hPa Calm     56 % 0.0 mm open2300-1.11 W/m2
17:11 12.8 °C 3.4 °C 1014.1 hPa Calm     53 % 0.0 mm open2300-1.11 W/m2
18:10 11.2 °C 1.9 °C 1014.8 hPa Calm     53 % 0.0 mm open2300-1.11 W/m2
19:11 10.4 °C 0.9 °C 1015.1 hPa Calm     52 % 0.0 mm open2300-1.11 W/m2
20:10 9.9 °C 0.5 °C 1015.5 hPa Calm     52 % 0.0 mm open2300-1.11 W/m2
21:11 10.1 °C 0.4 °C 1015.8 hPa Calm     51 % 0.0 mm open2300-1.11 W/m2
22:10 10.2 °C 0.6 °C 1016.1 hPa Calm     51 % 0.0 mm open2300-1.11 W/m2
23:11 10.5 °C 0.6 °C 1016.1 hPa Calm     50 % 0.0 mm open2300-1.11 W/m2
Observations météo à CASSIS
WU-History script by Weather Underground - 1 mb